Portada
METAR-TAF:

METAR-TAF

Aeroports :

Jandakot, Austràlia

latitud: 32-05-51S, longitud: 115-52-52E, altitud: 30 m

Observació

L'informe es va fer fa 25 minuts, a les 22:00 UTC
Vent 7 kt del Sud
Temperatura 8°C
Humitat 87%
Pressió 1023 hPa
Visibilitat 10 km o més

METAR: YPJT 192200Z AUTO 18007KT 9999 // NCD 08/06 Q1023 RF00.0/000.0

Hora: 06:25 (22:25 UTC)

Pronòstic

L'informe es va fer fa 6 hores i 8 minuts, a les 16:17 UTC
Pronòstic vàlid del 19 a les 18 UTC al 20 a les 12 UTC
Vent 10 kt del Sud
Visibilitat 10 km o més
sense núvols per sota de 1500 mi sense presència de cumulonimbus.
A partir de les 19 a les 2300 UTC
Vent 12 kt del Sud-Est
Visibilitat 10 km o més
sense núvols per sota de 1500 mi sense presència de cumulonimbus.
A partir de les 20 a les 0400 UTC
Vent 15 kt del Sud-Oest
Visibilitat 10 km o més
sense núvols per sota de 1500 mi sense presència de cumulonimbus.

TAF: YPJT 191617Z 1918/2012 18010KT CAVOK FM192300 13012KT CAVOK FM200400 22015KT CAVOK

Observacions i pronòstics meteorològics de més de 4000 aeroports (METAR i TAF).

Les estacions disponibles són els punts grocs i vermells al mapa.

Posi el ratolí al punt desitjat per veure el nom de l'estació.

Feu clic per veure les observacions i els pronòstics meteorològics.

Per canviar el mapa: feu clic els botons verds amb una creu de color negre per apropar; al botó verd amb un guió per allunyar la imatge; o en les fletxes verdes per a mapes adjacents.


METAR-TAF: